Sheridan, Indiana
Current Conditions -  °F | °C
As of 11:15 PM on Wednesday 28 Jan 2015 (Local Time) from KTYQ Reporting Station
Clear Clear  
Wind Chill: 22°   Ceiling: Unl
Heat Index: 33°   Visibility: 10mi
Dew Point: 18°   Wind: 17mph
Humidity: 54%   Direction: 160°SSE
Pressure: 30.01"   Gusts: 23mph
Location:  40.14°N, 86.22°W
Report Text: KTYQ 290415Z AUTO 16015G20KT 10SM CLR 01/M08 A3001 RMK AO2 T00071076
Loading
Personal Weather Stations






























Interactive Weather Map New forecast layout! Learn more

10-Day Weather Forecast

Advertisements
Track Severe Weather on mobile